sensor_id;sensor_type;location;lat;lon;timestamp;P1;durP1;ratioP1;P2;durP2;ratioP2
35612;SDS011;22054;51.646;7.078;2023-04-24T00:00:28;0.00;;;0.00;;
35612;SDS011;22054;51.646;7.078;2023-04-24T00:02:54;0.00;;;0.00;;
35612;SDS011;22054;51.646;7.078;2023-04-24T00:05:23;0.00;;;0.00;;
35612;SDS011;22054;51.646;7.078;2023-04-24T00:07:49;0.00;;;0.00;;
35612;SDS011;22054;51.646;7.078;2023-04-24T00:10:17;0.00;;;0.00;;
35612;SDS011;22054;51.646;7.078;2023-04-24T00:12:43;0.00;;;0.00;;
35612;SDS011;22054;51.646;7.078;2023-04-24T00:15:09;0.00;;;0.00;;
35612;SDS011;22054;51.646;7.078;2023-04-24T00:17:36;0.00;;;0.00;;
35612;SDS011;22054;51.646;7.078;2023-04-24T00:20:02;0.00;;;0.00;;
35612;SDS011;22054;51.646;7.078;2023-04-24T00:22:29;0.00;;;0.00;;
35612;SDS011;22054;51.646;7.078;2023-04-24T00:24:56;0.00;;;0.00;;
35612;SDS011;22054;51.646;7.078;2023-04-24T00:27:22;0.00;;;0.00;;
35612;SDS011;22054;51.646;7.078;2023-04-24T00:29:48;0.00;;;0.00;;
35612;SDS011;22054;51.646;7.078;2023-04-24T00:32:14;0.00;;;0.00;;
35612;SDS011;22054;51.646;7.078;2023-04-24T00:34:40;0.00;;;0.00;;
35612;SDS011;22054;51.646;7.078;2023-04-24T00:37:06;0.00;;;0.00;;
35612;SDS011;22054;51.646;7.078;2023-04-24T00:39:32;0.00;;;0.00;;
35612;SDS011;22054;51.646;7.078;2023-04-24T00:41:58;0.00;;;0.00;;
35612;SDS011;22054;51.646;7.078;2023-04-24T00:44:24;0.00;;;0.00;;
35612;SDS011;22054;51.646;7.078;2023-04-24T00:46:50;0.00;;;0.00;;
35612;SDS011;22054;51.646;7.078;2023-04-24T00:49:17;0.00;;;0.00;;
35612;SDS011;22054;51.646;7.078;2023-04-24T00:51:44;0.00;;;0.00;;
35612;SDS011;22054;51.646;7.078;2023-04-24T00:54:10;0.00;;;0.00;;
35612;SDS011;22054;51.646;7.078;2023-04-24T00:56:37;0.00;;;0.00;;
35612;SDS011;22054;51.646;7.078;2023-04-24T00:59:03;0.00;;;0.00;;
35612;SDS011;22054;51.646;7.078;2023-04-24T01:01:29;0.00;;;0.00;;
35612;SDS011;22054;51.646;7.078;2023-04-24T01:03:55;0.00;;;0.00;;
35612;SDS011;22054;51.646;7.078;2023-04-24T01:06:22;0.00;;;0.00;;
35612;SDS011;22054;51.646;7.078;2023-04-24T01:08:52;0.00;;;0.00;;
35612;SDS011;22054;51.646;7.078;2023-04-24T01:11:19;0.00;;;0.00;;
35612;SDS011;22054;51.646;7.078;2023-04-24T01:13:50;0.00;;;0.00;;
35612;SDS011;22054;51.646;7.078;2023-04-24T01:16:16;0.00;;;0.00;;
35612;SDS011;22054;51.646;7.078;2023-04-24T01:18:43;0.00;;;0.00;;
35612;SDS011;22054;51.646;7.078;2023-04-24T01:21:09;0.00;;;0.00;;
35612;SDS011;22054;51.646;7.078;2023-04-24T01:23:41;0.00;;;0.00;;
35612;SDS011;22054;51.646;7.078;2023-04-24T01:26:11;0.00;;;0.00;;
35612;SDS011;22054;51.646;7.078;2023-04-24T01:28:38;0.00;;;0.00;;
35612;SDS011;22054;51.646;7.078;2023-04-24T01:31:04;0.00;;;0.00;;
35612;SDS011;22054;51.646;7.078;2023-04-24T01:33:30;0.00;;;0.00;;
35612;SDS011;22054;51.646;7.078;2023-04-24T01:35:57;0.00;;;0.00;;
35612;SDS011;22054;51.646;7.078;2023-04-24T01:38:22;0.00;;;0.00;;
35612;SDS011;22054;51.646;7.078;2023-04-24T01:40:49;0.00;;;0.00;;
35612;SDS011;22054;51.646;7.078;2023-04-24T01:43:16;0.00;;;0.00;;
35612;SDS011;22054;51.646;7.078;2023-04-24T01:45:42;0.00;;;0.00;;
35612;SDS011;22054;51.646;7.078;2023-04-24T01:48:08;0.00;;;0.00;;
35612;SDS011;22054;51.646;7.078;2023-04-24T01:50:34;0.00;;;0.00;;
35612;SDS011;22054;51.646;7.078;2023-04-24T01:53:00;0.00;;;0.00;;
35612;SDS011;22054;51.646;7.078;2023-04-24T01:55:26;0.00;;;0.00;;
35612;SDS011;22054;51.646;7.078;2023-04-24T01:57:52;0.00;;;0.00;;
35612;SDS011;22054;51.646;7.078;2023-04-24T02:00:20;0.00;;;0.00;;
35612;SDS011;22054;51.646;7.078;2023-04-24T02:02:47;0.00;;;0.00;;
35612;SDS011;22054;51.646;7.078;2023-04-24T02:05:12;0.00;;;0.00;;
35612;SDS011;22054;51.646;7.078;2023-04-24T02:07:38;0.00;;;0.00;;
35612;SDS011;22054;51.646;7.078;2023-04-24T02:10:04;0.05;;;0.05;;
35612;SDS011;22054;51.646;7.078;2023-04-24T02:12:31;0.00;;;0.00;;
35612;SDS011;22054;51.646;7.078;2023-04-24T02:14:57;0.00;;;0.00;;
35612;SDS011;22054;51.646;7.078;2023-04-24T02:17:23;0.00;;;0.00;;
35612;SDS011;22054;51.646;7.078;2023-04-24T02:19:49;0.00;;;0.00;;
35612;SDS011;22054;51.646;7.078;2023-04-24T02:22:15;0.00;;;0.00;;
35612;SDS011;22054;51.646;7.078;2023-04-24T02:24:41;0.00;;;0.00;;
35612;SDS011;22054;51.646;7.078;2023-04-24T02:27:06;0.00;;;0.00;;
35612;SDS011;22054;51.646;7.078;2023-04-24T02:29:32;0.00;;;0.00;;
35612;SDS011;22054;51.646;7.078;2023-04-24T02:31:58;0.00;;;0.00;;
35612;SDS011;22054;51.646;7.078;2023-04-24T02:34:24;0.00;;;0.00;;
35612;SDS011;22054;51.646;7.078;2023-04-24T02:36:50;0.08;;;0.08;;
35612;SDS011;22054;51.646;7.078;2023-04-24T02:39:15;0.00;;;0.00;;
35612;SDS011;22054;51.646;7.078;2023-04-24T02:41:41;0.00;;;0.00;;
35612;SDS011;22054;51.646;7.078;2023-04-24T02:44:08;0.00;;;0.00;;
35612;SDS011;22054;51.646;7.078;2023-04-24T02:46:34;0.00;;;0.00;;
35612;SDS011;22054;51.646;7.078;2023-04-24T02:48:59;0.00;;;0.00;;
35612;SDS011;22054;51.646;7.078;2023-04-24T02:51:25;0.00;;;0.00;;
35612;SDS011;22054;51.646;7.078;2023-04-24T02:53:51;0.00;;;0.00;;
35612;SDS011;22054;51.646;7.078;2023-04-24T02:56:17;0.00;;;0.00;;
35612;SDS011;22054;51.646;7.078;2023-04-24T02:58:43;0.00;;;0.00;;
35612;SDS011;22054;51.646;7.078;2023-04-24T03:01:09;0.00;;;0.00;;
35612;SDS011;22054;51.646;7.078;2023-04-24T03:03:36;0.00;;;0.00;;
35612;SDS011;22054;51.646;7.078;2023-04-24T03:06:03;0.00;;;0.00;;
35612;SDS011;22054;51.646;7.078;2023-04-24T03:08:30;0.00;;;0.00;;
35612;SDS011;22054;51.646;7.078;2023-04-24T03:10:57;0.00;;;0.00;;
35612;SDS011;22054;51.646;7.078;2023-04-24T03:13:22;0.00;;;0.00;;
35612;SDS011;22054;51.646;7.078;2023-04-24T03:15:48;0.00;;;0.00;;
35612;SDS011;22054;51.646;7.078;2023-04-24T03:18:14;0.00;;;0.00;;
35612;SDS011;22054;51.646;7.078;2023-04-24T03:20:40;0.00;;;0.00;;
35612;SDS011;22054;51.646;7.078;2023-04-24T03:23:06;0.08;;;0.08;;
35612;SDS011;22054;51.646;7.078;2023-04-24T03:25:31;0.00;;;0.00;;
35612;SDS011;22054;51.646;7.078;2023-04-24T03:27:57;0.00;;;0.00;;
35612;SDS011;22054;51.646;7.078;2023-04-24T03:30:23;0.00;;;0.00;;
35612;SDS011;22054;51.646;7.078;2023-04-24T03:32:49;0.00;;;0.00;;
35612;SDS011;22054;51.646;7.078;2023-04-24T03:35:14;0.00;;;0.00;;
35612;SDS011;22054;51.646;7.078;2023-04-24T03:37:40;0.00;;;0.00;;
35612;SDS011;22054;51.646;7.078;2023-04-24T03:40:06;0.00;;;0.00;;
35612;SDS011;22054;51.646;7.078;2023-04-24T03:42:33;0.05;;;0.05;;
35612;SDS011;22054;51.646;7.078;2023-04-24T03:44:58;0.00;;;0.00;;
35612;SDS011;22054;51.646;7.078;2023-04-24T03:47:24;0.00;;;0.00;;
35612;SDS011;22054;51.646;7.078;2023-04-24T03:49:50;0.08;;;0.08;;
35612;SDS011;22054;51.646;7.078;2023-04-24T03:52:16;0.08;;;0.08;;
35612;SDS011;22054;51.646;7.078;2023-04-24T03:54:42;0.00;;;0.00;;
35612;SDS011;22054;51.646;7.078;2023-04-24T03:57:08;0.00;;;0.00;;
35612;SDS011;22054;51.646;7.078;2023-04-24T03:59:34;0.00;;;0.00;;
35612;SDS011;22054;51.646;7.078;2023-04-24T04:01:59;0.08;;;0.08;;
35612;SDS011;22054;51.646;7.078;2023-04-24T04:04:25;0.00;;;0.00;;
35612;SDS011;22054;51.646;7.078;2023-04-24T04:06:51;0.00;;;0.00;;
35612;SDS011;22054;51.646;7.078;2023-04-24T04:09:17;0.00;;;0.00;;
35612;SDS011;22054;51.646;7.078;2023-04-24T04:11:42;0.00;;;0.00;;
35612;SDS011;22054;51.646;7.078;2023-04-24T04:14:08;0.00;;;0.00;;
35612;SDS011;22054;51.646;7.078;2023-04-24T04:16:34;0.00;;;0.00;;
35612;SDS011;22054;51.646;7.078;2023-04-24T04:19:01;0.03;;;0.03;;
35612;SDS011;22054;51.646;7.078;2023-04-24T04:21:28;0.00;;;0.00;;
35612;SDS011;22054;51.646;7.078;2023-04-24T04:23:54;0.00;;;0.00;;
35612;SDS011;22054;51.646;7.078;2023-04-24T04:26:20;0.00;;;0.00;;
35612;SDS011;22054;51.646;7.078;2023-04-24T04:28:46;0.10;;;0.10;;
35612;SDS011;22054;51.646;7.078;2023-04-24T04:31:12;0.00;;;0.00;;
35612;SDS011;22054;51.646;7.078;2023-04-24T04:33:38;0.00;;;0.00;;
35612;SDS011;22054;51.646;7.078;2023-04-24T04:36:04;0.00;;;0.00;;
35612;SDS011;22054;51.646;7.078;2023-04-24T04:38:30;0.00;;;0.00;;
35612;SDS011;22054;51.646;7.078;2023-04-24T04:40:56;0.00;;;0.00;;
35612;SDS011;22054;51.646;7.078;2023-04-24T04:43:24;0.00;;;0.00;;
35612;SDS011;22054;51.646;7.078;2023-04-24T04:45:50;0.00;;;0.00;;
35612;SDS011;22054;51.646;7.078;2023-04-24T04:48:17;0.00;;;0.00;;
35612;SDS011;22054;51.646;7.078;2023-04-24T04:50:43;0.00;;;0.00;;
35612;SDS011;22054;51.646;7.078;2023-04-24T04:53:10;0.00;;;0.00;;
35612;SDS011;22054;51.646;7.078;2023-04-24T04:55:36;0.00;;;0.00;;
35612;SDS011;22054;51.646;7.078;2023-04-24T04:58:03;0.00;;;0.00;;
35612;SDS011;22054;51.646;7.078;2023-04-24T05:00:28;0.00;;;0.00;;
35612;SDS011;22054;51.646;7.078;2023-04-24T05:03:00;0.00;;;0.00;;
35612;SDS011;22054;51.646;7.078;2023-04-24T05:05:26;0.00;;;0.00;;
35612;SDS011;22054;51.646;7.078;2023-04-24T05:07:52;0.00;;;0.00;;
35612;SDS011;22054;51.646;7.078;2023-04-24T05:10:17;0.00;;;0.00;;
35612;SDS011;22054;51.646;7.078;2023-04-24T05:12:43;0.00;;;0.00;;
35612;SDS011;22054;51.646;7.078;2023-04-24T05:15:09;0.00;;;0.00;;
35612;SDS011;22054;51.646;7.078;2023-04-24T05:17:35;0.00;;;0.00;;
35612;SDS011;22054;51.646;7.078;2023-04-24T05:20:02;0.00;;;0.00;;
35612;SDS011;22054;51.646;7.078;2023-04-24T05:22:32;0.00;;;0.00;;
35612;SDS011;22054;51.646;7.078;2023-04-24T05:24:58;0.00;;;0.00;;
35612;SDS011;22054;51.646;7.078;2023-04-24T05:27:24;0.00;;;0.00;;
35612;SDS011;22054;51.646;7.078;2023-04-24T05:29:50;0.00;;;0.00;;
35612;SDS011;22054;51.646;7.078;2023-04-24T05:32:16;0.00;;;0.00;;
35612;SDS011;22054;51.646;7.078;2023-04-24T05:34:42;0.00;;;0.00;;
35612;SDS011;22054;51.646;7.078;2023-04-24T05:37:08;0.00;;;0.00;;
35612;SDS011;22054;51.646;7.078;2023-04-24T05:39:35;0.00;;;0.00;;
35612;SDS011;22054;51.646;7.078;2023-04-24T05:42:01;0.00;;;0.00;;
35612;SDS011;22054;51.646;7.078;2023-04-24T05:44:29;0.00;;;0.00;;
35612;SDS011;22054;51.646;7.078;2023-04-24T05:46:55;0.00;;;0.00;;
35612;SDS011;22054;51.646;7.078;2023-04-24T05:49:21;0.00;;;0.00;;
35612;SDS011;22054;51.646;7.078;2023-04-24T05:51:47;0.00;;;0.00;;
35612;SDS011;22054;51.646;7.078;2023-04-24T05:54:13;0.00;;;0.00;;
35612;SDS011;22054;51.646;7.078;2023-04-24T05:56:39;0.00;;;0.00;;
35612;SDS011;22054;51.646;7.078;2023-04-24T05:59:05;0.00;;;0.00;;
35612;SDS011;22054;51.646;7.078;2023-04-24T06:01:32;0.00;;;0.00;;
35612;SDS011;22054;51.646;7.078;2023-04-24T06:03:58;0.00;;;0.00;;
35612;SDS011;22054;51.646;7.078;2023-04-24T06:06:24;0.00;;;0.00;;
35612;SDS011;22054;51.646;7.078;2023-04-24T06:08:50;0.00;;;0.00;;
35612;SDS011;22054;51.646;7.078;2023-04-24T06:11:16;0.00;;;0.00;;
35612;SDS011;22054;51.646;7.078;2023-04-24T06:13:42;0.00;;;0.00;;
35612;SDS011;22054;51.646;7.078;2023-04-24T06:16:08;0.00;;;0.00;;
35612;SDS011;22054;51.646;7.078;2023-04-24T06:18:34;0.00;;;0.00;;
35612;SDS011;22054;51.646;7.078;2023-04-24T06:21:00;0.00;;;0.00;;
35612;SDS011;22054;51.646;7.078;2023-04-24T06:23:26;0.00;;;0.00;;
35612;SDS011;22054;51.646;7.078;2023-04-24T06:25:51;0.00;;;0.00;;
35612;SDS011;22054;51.646;7.078;2023-04-24T06:28:17;0.00;;;0.00;;
35612;SDS011;22054;51.646;7.078;2023-04-24T06:30:43;0.00;;;0.00;;
35612;SDS011;22054;51.646;7.078;2023-04-24T06:33:09;0.00;;;0.00;;
35612;SDS011;22054;51.646;7.078;2023-04-24T06:35:35;0.00;;;0.00;;
35612;SDS011;22054;51.646;7.078;2023-04-24T06:38:03;0.00;;;0.00;;
35612;SDS011;22054;51.646;7.078;2023-04-24T06:40:29;0.00;;;0.00;;
35612;SDS011;22054;51.646;7.078;2023-04-24T06:42:55;0.00;;;0.00;;
35612;SDS011;22054;51.646;7.078;2023-04-24T06:45:22;0.00;;;0.00;;
35612;SDS011;22054;51.646;7.078;2023-04-24T06:47:48;0.00;;;0.00;;
35612;SDS011;22054;51.646;7.078;2023-04-24T06:50:14;0.00;;;0.00;;
35612;SDS011;22054;51.646;7.078;2023-04-24T06:52:40;0.00;;;0.00;;
35612;SDS011;22054;51.646;7.078;2023-04-24T06:55:06;0.00;;;0.00;;
35612;SDS011;22054;51.646;7.078;2023-04-24T06:57:32;0.08;;;0.08;;
35612;SDS011;22054;51.646;7.078;2023-04-24T06:59:58;0.00;;;0.00;;
35612;SDS011;22054;51.646;7.078;2023-04-24T07:02:24;0.00;;;0.00;;
35612;SDS011;22054;51.646;7.078;2023-04-24T07:04:50;0.00;;;0.00;;
35612;SDS011;22054;51.646;7.078;2023-04-24T07:07:15;0.00;;;0.00;;
35612;SDS011;22054;51.646;7.078;2023-04-24T07:09:41;0.00;;;0.00;;
35612;SDS011;22054;51.646;7.078;2023-04-24T07:12:07;0.10;;;0.10;;
35612;SDS011;22054;51.646;7.078;2023-04-24T07:14:35;0.00;;;0.00;;
35612;SDS011;22054;51.646;7.078;2023-04-24T07:17:02;0.00;;;0.00;;
35612;SDS011;22054;51.646;7.078;2023-04-24T07:19:29;0.00;;;0.00;;
35612;SDS011;22054;51.646;7.078;2023-04-24T07:21:55;0.10;;;0.10;;
35612;SDS011;22054;51.646;7.078;2023-04-24T07:24:23;0.00;;;0.00;;
35612;SDS011;22054;51.646;7.078;2023-04-24T07:26:50;0.00;;;0.00;;
35612;SDS011;22054;51.646;7.078;2023-04-24T07:29:17;0.00;;;0.00;;
35612;SDS011;22054;51.646;7.078;2023-04-24T07:31:43;0.00;;;0.00;;
35612;SDS011;22054;51.646;7.078;2023-04-24T07:34:10;0.00;;;0.00;;
35612;SDS011;22054;51.646;7.078;2023-04-24T07:36:35;0.00;;;0.00;;
35612;SDS011;22054;51.646;7.078;2023-04-24T07:39:03;0.00;;;0.00;;
35612;SDS011;22054;51.646;7.078;2023-04-24T07:41:33;0.08;;;0.08;;
35612;SDS011;22054;51.646;7.078;2023-04-24T07:43:59;0.00;;;0.00;;
35612;SDS011;22054;51.646;7.078;2023-04-24T07:46:24;0.00;;;0.00;;
35612;SDS011;22054;51.646;7.078;2023-04-24T07:48:51;0.00;;;0.00;;
35612;SDS011;22054;51.646;7.078;2023-04-24T07:51:17;0.00;;;0.00;;
35612;SDS011;22054;51.646;7.078;2023-04-24T07:53:42;0.00;;;0.00;;
35612;SDS011;22054;51.646;7.078;2023-04-24T07:56:08;0.00;;;0.00;;
35612;SDS011;22054;51.646;7.078;2023-04-24T07:58:34;0.00;;;0.00;;
35612;SDS011;22054;51.646;7.078;2023-04-24T08:01:00;0.00;;;0.00;;
35612;SDS011;22054;51.646;7.078;2023-04-24T08:03:26;0.00;;;0.00;;
35612;SDS011;22054;51.646;7.078;2023-04-24T08:05:52;0.00;;;0.00;;
35612;SDS011;22054;51.646;7.078;2023-04-24T08:08:20;0.00;;;0.00;;
35612;SDS011;22054;51.646;7.078;2023-04-24T08:10:47;0.00;;;0.00;;
35612;SDS011;22054;51.646;7.078;2023-04-24T08:13:14;0.05;;;0.05;;
35612;SDS011;22054;51.646;7.078;2023-04-24T08:15:39;0.00;;;0.00;;
35612;SDS011;22054;51.646;7.078;2023-04-24T08:18:07;0.00;;;0.00;;
35612;SDS011;22054;51.646;7.078;2023-04-24T08:20:32;0.00;;;0.00;;
35612;SDS011;22054;51.646;7.078;2023-04-24T08:23:00;0.00;;;0.00;;
35612;SDS011;22054;51.646;7.078;2023-04-24T08:25:25;0.00;;;0.00;;
35612;SDS011;22054;51.646;7.078;2023-04-24T08:27:51;0.00;;;0.00;;
35612;SDS011;22054;51.646;7.078;2023-04-24T08:30:17;0.00;;;0.00;;
35612;SDS011;22054;51.646;7.078;2023-04-24T08:32:43;0.00;;;0.00;;
35612;SDS011;22054;51.646;7.078;2023-04-24T08:35:09;0.00;;;0.00;;
35612;SDS011;22054;51.646;7.078;2023-04-24T08:37:35;0.00;;;0.00;;
35612;SDS011;22054;51.646;7.078;2023-04-24T08:40:03;0.00;;;0.00;;
35612;SDS011;22054;51.646;7.078;2023-04-24T08:42:41;0.00;;;0.00;;
35612;SDS011;22054;51.646;7.078;2023-04-24T08:45:09;0.00;;;0.00;;
35612;SDS011;22054;51.646;7.078;2023-04-24T08:47:37;0.10;;;0.10;;
35612;SDS011;22054;51.646;7.078;2023-04-24T08:50:05;0.00;;;0.00;;
35612;SDS011;22054;51.646;7.078;2023-04-24T08:52:33;0.00;;;0.00;;
35612;SDS011;22054;51.646;7.078;2023-04-24T08:55:02;0.00;;;0.00;;
35612;SDS011;22054;51.646;7.078;2023-04-24T08:57:29;0.00;;;0.00;;
35612;SDS011;22054;51.646;7.078;2023-04-24T08:59:56;0.00;;;0.00;;
35612;SDS011;22054;51.646;7.078;2023-04-24T09:02:23;0.00;;;0.00;;
35612;SDS011;22054;51.646;7.078;2023-04-24T09:04:50;0.00;;;0.00;;
35612;SDS011;22054;51.646;7.078;2023-04-24T09:07:17;0.00;;;0.00;;
35612;SDS011;22054;51.646;7.078;2023-04-24T09:09:45;0.00;;;0.00;;
35612;SDS011;22054;51.646;7.078;2023-04-24T09:12:11;0.00;;;0.00;;
35612;SDS011;22054;51.646;7.078;2023-04-24T09:14:37;0.00;;;0.00;;
35612;SDS011;22054;51.646;7.078;2023-04-24T09:17:07;0.00;;;0.00;;
35612;SDS011;22054;51.646;7.078;2023-04-24T09:19:33;0.00;;;0.00;;
35612;SDS011;22054;51.646;7.078;2023-04-24T09:21:59;0.00;;;0.00;;
35612;SDS011;22054;51.646;7.078;2023-04-24T09:24:25;0.00;;;0.00;;
35612;SDS011;22054;51.646;7.078;2023-04-24T09:26:57;0.00;;;0.00;;
35612;SDS011;22054;51.646;7.078;2023-04-24T09:29:23;0.00;;;0.00;;
35612;SDS011;22054;51.646;7.078;2023-04-24T09:31:50;0.00;;;0.00;;
35612;SDS011;22054;51.646;7.078;2023-04-24T09:34:20;0.00;;;0.00;;
35612;SDS011;22054;51.646;7.078;2023-04-24T09:36:48;0.00;;;0.00;;
35612;SDS011;22054;51.646;7.078;2023-04-24T09:39:15;0.00;;;0.00;;
35612;SDS011;22054;51.646;7.078;2023-04-24T09:41:46;0.00;;;0.00;;
35612;SDS011;22054;51.646;7.078;2023-04-24T09:44:22;0.00;;;0.00;;
35612;SDS011;22054;51.646;7.078;2023-04-24T09:46:54;0.00;;;0.00;;
35612;SDS011;22054;51.646;7.078;2023-04-24T09:49:25;0.00;;;0.00;;
35612;SDS011;22054;51.646;7.078;2023-04-24T09:52:03;0.00;;;0.00;;
35612;SDS011;22054;51.646;7.078;2023-04-24T09:54:34;0.00;;;0.00;;
35612;SDS011;22054;51.646;7.078;2023-04-24T09:57:02;0.00;;;0.00;;
35612;SDS011;22054;51.646;7.078;2023-04-24T09:59:28;0.00;;;0.00;;
35612;SDS011;22054;51.646;7.078;2023-04-24T10:01:54;0.00;;;0.00;;
35612;SDS011;22054;51.646;7.078;2023-04-24T10:04:22;0.00;;;0.00;;
35612;SDS011;22054;51.646;7.078;2023-04-24T10:06:51;0.00;;;0.00;;
35612;SDS011;22054;51.646;7.078;2023-04-24T10:09:23;0.00;;;0.00;;
35612;SDS011;22054;51.646;7.078;2023-04-24T10:11:51;0.00;;;0.00;;
35612;SDS011;22054;51.646;7.078;2023-04-24T10:14:20;0.00;;;0.00;;
35612;SDS011;22054;51.646;7.078;2023-04-24T10:16:48;0.00;;;0.00;;
35612;SDS011;22054;51.646;7.078;2023-04-24T10:19:16;0.00;;;0.00;;
35612;SDS011;22054;51.646;7.078;2023-04-24T10:21:45;0.00;;;0.00;;
35612;SDS011;22054;51.646;7.078;2023-04-24T10:24:19;0.00;;;0.00;;
35612;SDS011;22054;51.646;7.078;2023-04-24T10:26:48;0.00;;;0.00;;
35612;SDS011;22054;51.646;7.078;2023-04-24T10:29:14;0.00;;;0.00;;
35612;SDS011;22054;51.646;7.078;2023-04-24T10:31:43;0.00;;;0.00;;
35612;SDS011;22054;51.646;7.078;2023-04-24T10:34:11;0.00;;;0.00;;
35612;SDS011;22054;51.646;7.078;2023-04-24T10:36:41;0.00;;;0.00;;
35612;SDS011;22054;51.646;7.078;2023-04-24T10:39:13;0.00;;;0.00;;
35612;SDS011;22054;51.646;7.078;2023-04-24T10:41:40;0.00;;;0.00;;
35612;SDS011;22054;51.646;7.078;2023-04-24T10:44:07;0.00;;;0.00;;
35612;SDS011;22054;51.646;7.078;2023-04-24T10:46:35;0.00;;;0.00;;
35612;SDS011;22054;51.646;7.078;2023-04-24T10:49:05;0.00;;;0.00;;
35612;SDS011;22054;51.646;7.078;2023-04-24T10:51:52;0.00;;;0.00;;
35612;SDS011;22054;51.646;7.078;2023-04-24T10:56:53;0.00;;;0.00;;
35612;SDS011;22054;51.646;7.078;2023-04-24T10:59:46;0.00;;;0.00;;
35612;SDS011;22054;51.646;7.078;2023-04-24T11:02:35;0.00;;;0.00;;
35612;SDS011;22054;51.646;7.078;2023-04-24T11:05:03;0.00;;;0.00;;
35612;SDS011;22054;51.646;7.078;2023-04-24T11:07:30;0.00;;;0.00;;
35612;SDS011;22054;51.646;7.078;2023-04-24T11:10:44;0.05;;;0.05;;
35612;SDS011;22054;51.646;7.078;2023-04-24T11:13:20;0.00;;;0.00;;
35612;SDS011;22054;51.646;7.078;2023-04-24T11:18:50;0.00;;;0.00;;
35612;SDS011;22054;51.646;7.078;2023-04-24T11:21:19;0.00;;;0.00;;
35612;SDS011;22054;51.646;7.078;2023-04-24T11:23:47;0.00;;;0.00;;
35612;SDS011;22054;51.646;7.078;2023-04-24T11:26:16;0.00;;;0.00;;
35612;SDS011;22054;51.646;7.078;2023-04-24T11:28:48;0.00;;;0.00;;
35612;SDS011;22054;51.646;7.078;2023-04-24T11:31:34;0.10;;;0.10;;
35612;SDS011;22054;51.646;7.078;2023-04-24T11:34:12;0.00;;;0.00;;
35612;SDS011;22054;51.646;7.078;2023-04-24T11:36:39;0.00;;;0.00;;
35612;SDS011;22054;51.646;7.078;2023-04-24T11:39:08;0.00;;;0.00;;
35612;SDS011;22054;51.646;7.078;2023-04-24T11:41:34;0.00;;;0.00;;
35612;SDS011;22054;51.646;7.078;2023-04-24T11:44:00;0.00;;;0.00;;
35612;SDS011;22054;51.646;7.078;2023-04-24T11:46:28;0.00;;;0.00;;
35612;SDS011;22054;51.646;7.078;2023-04-24T11:48:56;0.00;;;0.00;;
35612;SDS011;22054;51.646;7.078;2023-04-24T11:51:23;0.00;;;0.00;;
35612;SDS011;22054;51.646;7.078;2023-04-24T11:53:50;0.00;;;0.00;;
35612;SDS011;22054;51.646;7.078;2023-04-24T11:56:19;0.00;;;0.00;;
35612;SDS011;22054;51.646;7.078;2023-04-24T11:58:53;0.00;;;0.00;;
35612;SDS011;22054;51.646;7.078;2023-04-24T12:01:19;0.03;;;0.03;;
35612;SDS011;22054;51.646;7.078;2023-04-24T12:03:49;0.00;;;0.00;;
35612;SDS011;22054;51.646;7.078;2023-04-24T12:06:19;0.00;;;0.00;;
35612;SDS011;22054;51.646;7.078;2023-04-24T12:08:46;0.00;;;0.00;;
35612;SDS011;22054;51.646;7.078;2023-04-24T12:11:14;0.00;;;0.00;;
35612;SDS011;22054;51.646;7.078;2023-04-24T12:13:43;0.00;;;0.00;;
35612;SDS011;22054;51.646;7.078;2023-04-24T12:16:10;0.00;;;0.00;;
35612;SDS011;22054;51.646;7.078;2023-04-24T12:18:40;0.00;;;0.00;;
35612;SDS011;22054;51.646;7.078;2023-04-24T12:21:14;0.00;;;0.00;;
35612;SDS011;22054;51.646;7.078;2023-04-24T12:23:47;0.00;;;0.00;;
35612;SDS011;22054;51.646;7.078;2023-04-24T12:26:19;0.00;;;0.00;;
35612;SDS011;22054;51.646;7.078;2023-04-24T12:28:47;0.10;;;0.10;;
35612;SDS011;22054;51.646;7.078;2023-04-24T12:31:18;0.00;;;0.00;;
35612;SDS011;22054;51.646;7.078;2023-04-24T12:33:46;0.00;;;0.00;;
35612;SDS011;22054;51.646;7.078;2023-04-24T12:36:12;0.00;;;0.00;;
35612;SDS011;22054;51.646;7.078;2023-04-24T12:38:38;0.00;;;0.00;;
35612;SDS011;22054;51.646;7.078;2023-04-24T12:41:10;0.05;;;0.05;;
35612;SDS011;22054;51.646;7.078;2023-04-24T12:43:38;0.00;;;0.00;;
35612;SDS011;22054;51.646;7.078;2023-04-24T12:46:16;0.00;;;0.00;;
35612;SDS011;22054;51.646;7.078;2023-04-24T12:48:41;0.35;;;0.35;;
35612;SDS011;22054;51.646;7.078;2023-04-24T12:51:07;0.30;;;0.30;;
35612;SDS011;22054;51.646;7.078;2023-04-24T12:53:33;0.60;;;0.60;;
35612;SDS011;22054;51.646;7.078;2023-04-24T12:55:59;0.60;;;0.60;;
35612;SDS011;22054;51.646;7.078;2023-04-24T12:58:24;0.50;;;0.50;;
35612;SDS011;22054;51.646;7.078;2023-04-24T13:00:50;0.50;;;0.50;;
35612;SDS011;22054;51.646;7.078;2023-04-24T13:03:17;0.40;;;0.40;;
35612;SDS011;22054;51.646;7.078;2023-04-24T13:05:43;0.30;;;0.30;;
35612;SDS011;22054;51.646;7.078;2023-04-24T13:08:09;0.30;;;0.30;;
35612;SDS011;22054;51.646;7.078;2023-04-24T13:10:35;0.30;;;0.30;;
35612;SDS011;22054;51.646;7.078;2023-04-24T13:13:01;0.40;;;0.40;;
35612;SDS011;22054;51.646;7.078;2023-04-24T13:15:28;0.45;;;0.45;;
35612;SDS011;22054;51.646;7.078;2023-04-24T13:17:54;0.00;;;0.00;;
35612;SDS011;22054;51.646;7.078;2023-04-24T13:20:20;0.00;;;0.00;;
35612;SDS011;22054;51.646;7.078;2023-04-24T13:22:46;0.00;;;0.00;;
35612;SDS011;22054;51.646;7.078;2023-04-24T13:25:12;0.00;;;0.00;;
35612;SDS011;22054;51.646;7.078;2023-04-24T13:27:38;0.00;;;0.00;;
35612;SDS011;22054;51.646;7.078;2023-04-24T13:30:04;0.00;;;0.00;;
35612;SDS011;22054;51.646;7.078;2023-04-24T13:32:31;0.00;;;0.00;;
35612;SDS011;22054;51.646;7.078;2023-04-24T13:34:58;0.00;;;0.00;;
35612;SDS011;22054;51.646;7.078;2023-04-24T13:37:25;0.00;;;0.00;;
35612;SDS011;22054;51.646;7.078;2023-04-24T13:39:51;0.00;;;0.00;;
35612;SDS011;22054;51.646;7.078;2023-04-24T13:42:16;0.00;;;0.00;;
35612;SDS011;22054;51.646;7.078;2023-04-24T13:44:43;0.00;;;0.00;;
35612;SDS011;22054;51.646;7.078;2023-04-24T13:47:09;0.00;;;0.00;;
35612;SDS011;22054;51.646;7.078;2023-04-24T13:49:35;0.00;;;0.00;;
35612;SDS011;22054;51.646;7.078;2023-04-24T13:52:01;0.00;;;0.00;;
35612;SDS011;22054;51.646;7.078;2023-04-24T13:54:27;0.00;;;0.00;;
35612;SDS011;22054;51.646;7.078;2023-04-24T13:56:55;0.00;;;0.00;;
35612;SDS011;22054;51.646;7.078;2023-04-24T13:59:23;0.00;;;0.00;;
35612;SDS011;22054;51.646;7.078;2023-04-24T14:01:49;0.00;;;0.00;;
35612;SDS011;22054;51.646;7.078;2023-04-24T14:04:14;0.00;;;0.00;;
35612;SDS011;22054;51.646;7.078;2023-04-24T14:06:40;0.00;;;0.00;;
35612;SDS011;22054;51.646;7.078;2023-04-24T14:09:06;0.00;;;0.00;;
35612;SDS011;22054;51.646;7.078;2023-04-24T14:11:33;0.00;;;0.00;;
35612;SDS011;22054;51.646;7.078;2023-04-24T14:13:59;0.00;;;0.00;;
35612;SDS011;22054;51.646;7.078;2023-04-24T14:16:25;0.00;;;0.00;;
35612;SDS011;22054;51.646;7.078;2023-04-24T14:18:51;0.00;;;0.00;;
35612;SDS011;22054;51.646;7.078;2023-04-24T14:21:17;0.00;;;0.00;;
35612;SDS011;22054;51.646;7.078;2023-04-24T14:23:43;0.00;;;0.00;;
35612;SDS011;22054;51.646;7.078;2023-04-24T14:26:09;0.00;;;0.00;;
35612;SDS011;22054;51.646;7.078;2023-04-24T14:28:35;0.00;;;0.00;;
35612;SDS011;22054;51.646;7.078;2023-04-24T14:31:00;0.00;;;0.00;;
35612;SDS011;22054;51.646;7.078;2023-04-24T14:33:26;0.00;;;0.00;;
35612;SDS011;22054;51.646;7.078;2023-04-24T14:35:52;0.00;;;0.00;;
35612;SDS011;22054;51.646;7.078;2023-04-24T14:38:17;0.00;;;0.00;;
35612;SDS011;22054;51.646;7.078;2023-04-24T14:40:43;0.00;;;0.00;;
35612;SDS011;22054;51.646;7.078;2023-04-24T14:43:09;0.00;;;0.00;;
35612;SDS011;22054;51.646;7.078;2023-04-24T14:45:36;0.00;;;0.00;;
35612;SDS011;22054;51.646;7.078;2023-04-24T14:48:03;0.00;;;0.00;;
35612;SDS011;22054;51.646;7.078;2023-04-24T14:50:29;0.00;;;0.00;;
35612;SDS011;22054;51.646;7.078;2023-04-24T14:52:56;0.10;;;0.10;;